createdAt,value
2019-01-09T00:01:17.440Z,74.31
2019-01-09T00:03:46.942Z,73.50
2019-01-09T00:06:52.891Z,73.67
2019-01-09T00:09:15.280Z,72.97
2019-01-09T00:15:17.512Z,73.96
2019-01-09T00:17:45.869Z,74.52
2019-01-09T02:16:59.137Z,69.24
2019-01-09T02:19:43.453Z,68.81
2019-01-09T02:22:42.962Z,69.01
2019-01-09T02:25:45.696Z,68.40
2019-01-09T02:28:43.773Z,67.65
2019-01-09T02:31:38.898Z,69.05
2019-01-09T02:34:08.897Z,68.72
2019-01-09T02:36:38.373Z,68.59
2019-01-09T02:39:07.852Z,69.04
2019-01-09T02:41:37.614Z,68.40
2019-01-09T02:44:08.318Z,67.79
2019-01-09T02:46:37.846Z,67.45
2019-01-09T02:49:07.382Z,68.29
2019-01-09T02:51:36.991Z,68.94
2019-01-09T02:54:06.495Z,69.43
2019-01-09T02:56:36.816Z,69.48
2019-01-09T02:59:06.285Z,69.74
2019-01-09T03:01:36.041Z,69.70
2019-01-09T03:04:06.069Z,69.53
2019-01-09T03:06:35.527Z,70.06
2019-01-09T03:09:06.313Z,69.75
2019-01-09T03:11:35.850Z,69.37
2019-01-09T03:14:06.302Z,69.15
2019-01-09T03:16:35.828Z,69.34
2019-01-09T03:19:05.737Z,69.66
2019-01-09T03:21:35.320Z,69.41
2019-01-09T03:24:24.164Z,69.56
2019-01-09T03:26:53.647Z,69.61
2019-01-09T03:29:23.119Z,69.02
2019-01-09T03:31:52.683Z,69.55
2019-01-09T03:34:22.283Z,69.22
2019-01-09T03:36:51.757Z,68.49
2019-01-09T03:39:21.798Z,69.15
2019-01-09T03:41:51.769Z,68.66
2019-01-09T03:44:21.238Z,68.29
2019-01-09T03:46:50.843Z,69.29
2019-01-09T03:49:20.352Z,69.36
2019-01-09T03:51:49.816Z,68.31
2019-01-09T03:54:19.362Z,67.87
2019-01-09T03:56:48.896Z,67.59
2019-01-09T03:59:18.472Z,67.81
2019-01-09T04:01:48.067Z,67.42
2019-01-09T04:04:17.595Z,67.09
2019-01-09T04:06:47.190Z,67.48
2019-01-09T04:09:17.034Z,66.77
2019-01-09T04:11:46.529Z,66.73
2019-01-09T04:14:15.997Z,66.52
2019-01-09T04:16:45.482Z,67.98
2019-01-09T04:19:15.020Z,69.37
2019-01-09T04:21:44.524Z,69.06
2019-01-09T04:24:14.235Z,69.60
2019-01-09T04:26:43.724Z,70.22
2019-01-09T04:29:13.254Z,69.50
2019-01-09T04:31:42.805Z,70.00
2019-01-09T04:34:12.272Z,69.84
2019-01-09T04:36:51.099Z,69.51
2019-01-09T04:39:13.499Z,68.79
2019-01-09T04:41:43.049Z,68.14
2019-01-09T04:44:12.633Z,68.04
2019-01-09T04:46:42.874Z,68.65
2019-01-09T04:49:12.463Z,68.91
2019-01-09T04:51:41.950Z,68.84
2019-01-09T04:54:11.477Z,68.51
2019-01-09T04:56:41.047Z,68.56
2019-01-09T04:59:10.606Z,69.04
2019-01-09T05:01:40.140Z,69.17
2019-01-09T05:04:09.646Z,69.23
2019-01-09T05:06:39.101Z,69.10
2019-01-09T05:09:08.683Z,69.46
2019-01-09T05:11:38.178Z,69.58
2019-01-09T05:14:07.680Z,70.17
2019-01-09T05:16:37.345Z,69.97
2019-01-09T05:19:06.938Z,69.43
2019-01-09T05:21:36.410Z,69.52
2019-01-09T05:24:06.051Z,69.23
2019-01-09T05:26:35.554Z,68.50
2019-01-09T05:29:05.074Z,69.34
2019-01-09T05:31:34.895Z,69.48
2019-01-09T05:34:04.383Z,68.97
2019-01-09T05:36:33.901Z,69.21
2019-01-09T05:39:04.809Z,69.46
2019-01-09T05:41:34.291Z,68.70
2019-01-09T05:44:03.745Z,68.05
2019-01-09T05:46:33.355Z,67.98
2019-01-09T05:49:02.896Z,69.21
2019-01-09T05:51:32.504Z,70.21
2019-01-09T05:54:02.254Z,70.31
2019-01-09T05:56:31.771Z,70.81
2019-01-09T05:59:01.281Z,70.49
2019-01-09T06:01:30.775Z,70.61
2019-01-09T06:04:00.395Z,70.14
2019-01-09T06:06:29.927Z,69.47
2019-01-09T06:08:59.520Z,69.27
2019-01-09T06:11:29.006Z,69.16
2019-01-09T06:13:58.931Z,68.29
2019-01-09T06:16:29.155Z,67.65
2019-01-09T06:18:58.665Z,67.68
2019-01-09T06:21:28.165Z,67.76
2019-01-09T06:23:57.758Z,67.63
2019-01-09T06:26:27.309Z,67.40
2019-01-09T06:28:56.808Z,67.49
2019-01-09T06:31:26.386Z,67.91
2019-01-09T06:33:55.914Z,67.62
2019-01-09T06:36:25.424Z,67.72
2019-01-09T06:38:55.234Z,67.69
2019-01-09T06:41:24.734Z,67.33
2019-01-09T06:43:54.243Z,67.73
2019-01-09T06:46:23.767Z,67.14
2019-01-09T06:48:53.250Z,66.76
2019-01-09T06:51:22.796Z,67.19
2019-01-09T06:53:52.382Z,66.37
2019-01-09T06:56:21.913Z,66.17
2019-01-09T06:58:51.422Z,64.57
2019-01-09T07:01:22.769Z,65.14
2019-01-09T07:03:52.342Z,64.47
2019-01-09T07:06:21.836Z,64.25
2019-01-09T07:08:51.413Z,66.44
2019-01-09T07:11:20.959Z,66.86
2019-01-09T07:13:50.425Z,67.06
2019-01-09T07:16:20.068Z,68.22
2019-01-09T07:18:49.574Z,68.17
2019-01-09T07:21:19.244Z,67.79
2019-01-09T07:23:48.958Z,68.55
2019-01-09T07:26:18.454Z,68.34
2019-01-09T07:28:47.960Z,68.69
2019-01-09T07:31:17.550Z,68.52
2019-01-09T07:33:47.053Z,68.24
2019-01-09T07:36:16.545Z,68.10
2019-01-09T07:38:46.050Z,68.03
2019-01-09T07:41:15.582Z,67.77
2019-01-09T07:43:45.100Z,67.72
2019-01-09T07:46:14.874Z,67.16
2019-01-09T07:48:44.450Z,67.17
2019-01-09T07:51:13.952Z,66.81
2019-01-09T07:53:43.456Z,66.96
2019-01-09T07:56:14.655Z,66.91
2019-01-09T07:58:44.180Z,67.42
2019-01-09T08:01:13.754Z,67.66
2019-01-09T08:03:43.245Z,67.67
2019-01-09T08:06:12.791Z,67.75
2019-01-09T08:08:42.776Z,68.80
2019-01-09T08:11:12.324Z,69.95
2019-01-09T08:13:41.778Z,69.66
2019-01-09T08:16:11.355Z,69.80
2019-01-09T08:18:42.282Z,71.03
2019-01-09T08:21:11.921Z,71.94
2019-01-09T08:23:41.470Z,72.55
2019-01-09T08:26:11.152Z,72.94
2019-01-09T08:28:40.654Z,73.61
2019-01-09T08:31:10.362Z,74.40
2019-01-09T08:33:40.012Z,74.11
2019-01-09T08:36:09.508Z,73.44
2019-01-09T08:38:39.044Z,74.80
2019-01-09T08:41:09.104Z,76.41
2019-01-09T08:43:38.584Z,76.54
2019-01-09T08:46:08.106Z,76.06
2019-01-09T08:48:37.598Z,76.69
2019-01-09T08:51:07.084Z,76.17
2019-01-09T08:53:36.868Z,76.46
2019-01-09T08:56:06.460Z,75.64
2019-01-09T08:58:35.957Z,75.55
2019-01-09T09:01:05.524Z,75.73
2019-01-09T09:03:35.028Z,76.64
2019-01-09T09:06:04.542Z,76.61
2019-01-09T09:08:35.017Z,76.44
2019-01-09T09:11:04.508Z,75.64
2019-01-09T09:13:37.525Z,74.97
2019-01-09T09:16:09.086Z,74.89
2019-01-09T09:18:38.626Z,75.35
2019-01-09T09:21:08.128Z,75.25
2019-01-09T09:23:37.680Z,75.21
2019-01-09T09:26:07.317Z,75.65
2019-01-09T09:28:36.808Z,75.50
2019-01-09T09:31:06.470Z,75.90
2019-01-09T09:33:36.018Z,74.82
2019-01-09T09:36:05.626Z,74.51
2019-01-09T09:38:35.224Z,73.96
2019-01-09T09:41:04.784Z,73.73
2019-01-09T09:43:34.290Z,73.51
2019-01-09T09:46:03.897Z,73.64
2019-01-09T09:48:33.402Z,73.03
2019-01-09T09:51:02.954Z,72.00
2019-01-09T09:53:32.476Z,72.62
2019-01-09T09:56:02.010Z,71.64
2019-01-09T09:58:31.522Z,71.43
2019-01-09T10:01:01.224Z,71.51
2019-01-09T10:03:30.722Z,71.61
2019-01-09T10:06:00.249Z,71.73
2019-01-09T10:08:29.803Z,70.96
2019-01-09T10:10:59.317Z,70.02
2019-01-09T10:13:28.821Z,70.08
2019-01-09T10:15:58.426Z,69.83
2019-01-09T10:18:28.012Z,68.94
2019-01-09T10:20:57.582Z,69.57
2019-01-09T10:23:27.410Z,70.19
2019-01-09T10:25:56.906Z,71.79
2019-01-09T10:28:26.372Z,72.27
2019-01-09T10:30:56.398Z,71.22
2019-01-09T10:33:25.939Z,70.95
2019-01-09T10:35:55.462Z,71.55
2019-01-09T10:38:25.088Z,71.90
2019-01-09T10:40:54.599Z,71.53
2019-01-09T10:43:24.130Z,71.06
2019-01-09T10:45:53.875Z,70.85
2019-01-09T10:48:23.386Z,71.20
2019-01-09T10:50:52.844Z,71.04
2019-01-09T10:53:22.370Z,71.70
2019-01-09T10:55:51.859Z,71.65
2019-01-09T10:58:21.429Z,71.90
2019-01-09T11:00:50.922Z,71.54
2019-01-09T11:03:20.417Z,71.24
2019-01-09T11:06:09.492Z,70.79
2019-01-09T11:08:46.693Z,71.44
2019-01-09T11:11:10.284Z,72.55
2019-01-09T11:13:39.873Z,72.76
2019-01-09T11:16:09.430Z,73.43
2019-01-09T11:18:38.899Z,74.14
2019-01-09T11:21:08.411Z,74.40
2019-01-09T11:23:37.895Z,74.06
2019-01-09T11:26:07.548Z,73.83
2019-01-09T11:28:37.279Z,73.39
2019-01-09T11:31:06.923Z,74.41
2019-01-09T11:33:36.755Z,73.68
2019-01-09T11:36:06.373Z,73.65
2019-01-09T11:38:35.895Z,73.65
2019-01-09T11:41:05.543Z,74.09
2019-01-09T11:43:35.165Z,73.42
2019-01-09T11:46:04.898Z,74.30
2019-01-09T11:48:34.885Z,74.44
2019-01-09T11:51:05.919Z,75.67
2019-01-09T11:53:35.423Z,75.04
2019-01-09T11:56:05.717Z,74.59
2019-01-09T11:58:35.194Z,74.64
2019-01-09T12:01:05.390Z,74.51
2019-01-09T12:03:37.701Z,73.72
2019-01-09T12:06:07.360Z,73.43
2019-01-09T12:08:36.889Z,73.32
2019-01-09T12:11:06.372Z,73.25
2019-01-09T12:13:35.958Z,72.93
2019-01-09T12:16:08.153Z,72.45
2019-01-09T12:18:36.814Z,73.00
2019-01-09T12:21:16.282Z,72.65
2019-01-09T12:23:37.580Z,70.91
2019-01-09T12:26:07.070Z,70.51
2019-01-09T12:28:36.919Z,71.45
2019-01-09T12:31:06.392Z,71.96
2019-01-09T12:33:35.897Z,71.83
2019-01-09T12:36:05.554Z,71.44
2019-01-09T12:38:35.145Z,72.07
2019-01-09T12:41:04.643Z,70.81
2019-01-09T12:43:34.332Z,69.47
2019-01-09T12:46:03.825Z,69.58
2019-01-09T12:48:33.330Z,70.66
2019-01-09T12:51:03.298Z,71.19
2019-01-09T12:53:34.148Z,71.29
2019-01-09T12:56:03.952Z,72.18
2019-01-09T12:58:33.652Z,71.95
2019-01-09T13:01:03.229Z,71.76
2019-01-09T13:03:32.714Z,71.92
2019-01-09T13:06:02.275Z,72.72
2019-01-09T13:08:31.776Z,73.01
2019-01-09T13:11:01.251Z,73.56
2019-01-09T13:13:30.881Z,73.61
2019-01-09T13:16:00.399Z,73.11
2019-01-09T13:18:29.903Z,74.34
2019-01-09T13:20:59.503Z,74.20
2019-01-09T13:23:29.037Z,74.27
2019-01-09T13:25:58.521Z,73.02
2019-01-09T13:28:28.079Z,73.43
2019-01-09T13:30:57.658Z,74.17
2019-01-09T13:33:27.203Z,73.47
2019-01-09T13:35:56.767Z,73.22
2019-01-09T13:38:26.318Z,73.82
2019-01-09T13:40:55.811Z,74.23
2019-01-09T13:43:25.554Z,73.85
2019-01-09T13:45:55.046Z,73.97
2019-01-09T13:48:24.553Z,74.83
2019-01-09T13:50:54.168Z,74.39
2019-01-09T13:53:23.661Z,74.84
2019-01-09T13:55:53.189Z,75.27
2019-01-09T13:58:22.836Z,75.31
2019-01-09T14:00:52.391Z,75.41
2019-01-09T14:03:21.981Z,76.09
2019-01-09T14:05:51.556Z,75.88
2019-01-09T14:08:21.083Z,75.52
2019-01-09T14:10:50.620Z,75.28
2019-01-09T14:13:20.158Z,75.45
2019-01-09T14:15:49.650Z,75.04
2019-01-09T14:18:19.138Z,74.36
2019-01-09T14:20:48.793Z,74.51
2019-01-09T14:23:18.328Z,74.49
2019-01-09T14:25:47.853Z,73.96
2019-01-09T14:28:17.406Z,72.66
2019-01-09T14:30:46.902Z,72.84
2019-01-09T14:33:16.385Z,72.57
2019-01-09T14:35:46.020Z,72.26
2019-01-09T14:38:15.496Z,72.41
2019-01-09T14:40:45.004Z,72.60
2019-01-09T14:43:15.003Z,72.77
2019-01-09T14:45:44.508Z,72.58
2019-01-09T14:48:14.002Z,72.20
2019-01-09T14:50:43.567Z,71.55
2019-01-09T14:53:13.119Z,72.00
2019-01-09T14:55:42.627Z,72.03
2019-01-09T14:58:12.180Z,70.86
2019-01-09T15:00:41.686Z,71.27
2019-01-09T15:03:11.231Z,71.53
2019-01-09T15:05:40.916Z,71.47
2019-01-09T15:08:10.390Z,71.49
2019-01-09T15:10:39.866Z,71.34
2019-01-09T15:13:09.526Z,70.61
2019-01-09T15:15:39.068Z,71.00
2019-01-09T15:18:08.697Z,71.19
2019-01-09T15:20:38.409Z,70.82
2019-01-09T15:23:07.966Z,70.36
2019-01-09T15:25:37.770Z,70.82
2019-01-09T15:28:08.255Z,70.41
2019-01-09T15:30:37.763Z,71.32
2019-01-09T15:33:07.346Z,71.00
2019-01-09T15:35:36.869Z,71.00
2019-01-09T15:38:06.342Z,71.01
2019-01-09T15:40:36.284Z,70.05
2019-01-09T15:43:05.898Z,69.88
2019-01-09T15:45:35.386Z,70.11
2019-01-09T15:48:04.977Z,69.97
2019-01-09T15:50:34.574Z,69.56
2019-01-09T15:53:04.208Z,70.15
2019-01-09T15:55:34.093Z,69.44
2019-01-09T15:58:03.721Z,69.90
2019-01-09T16:00:40.353Z,70.31
2019-01-09T16:03:10.050Z,69.10
2019-01-09T16:05:39.974Z,69.54
2019-01-09T16:08:09.537Z,69.95
2019-01-09T16:10:39.293Z,69.52
2019-01-09T16:13:09.113Z,69.56
2019-01-09T16:15:38.627Z,70.97
2019-01-09T16:18:09.252Z,70.78
2019-01-09T16:20:38.747Z,70.63
2019-01-09T16:23:08.326Z,70.86
2019-01-09T16:25:37.834Z,71.00
2019-01-09T16:28:07.311Z,72.14
2019-01-09T16:30:53.421Z,72.21
2019-01-09T16:33:23.174Z,71.18
2019-01-09T16:35:52.954Z,70.92
2019-01-09T16:38:22.476Z,71.13
2019-01-09T16:40:51.973Z,71.44
2019-01-09T16:43:21.562Z,72.19
2019-01-09T16:45:51.126Z,72.37
2019-01-09T16:48:20.657Z,73.25
2019-01-09T16:50:50.136Z,73.10
2019-01-09T16:53:19.766Z,72.27
2019-01-09T16:55:49.368Z,72.44
2019-01-09T16:58:18.876Z,71.33
2019-01-09T17:00:48.889Z,71.30
2019-01-09T17:03:18.519Z,71.37
2019-01-09T17:05:48.073Z,72.03
2019-01-09T17:08:17.651Z,71.95
2019-01-09T17:10:47.164Z,72.67
2019-01-09T17:13:17.086Z,72.61
2019-01-09T17:15:47.175Z,72.28
2019-01-09T17:18:16.622Z,72.30
2019-01-09T17:20:46.095Z,71.91
2019-01-09T17:23:15.627Z,71.95
2019-01-09T17:25:45.587Z,71.18
2019-01-09T17:28:15.163Z,71.75
2019-01-09T17:30:44.671Z,70.89
2019-01-09T17:33:14.238Z,71.65
2019-01-09T17:35:43.846Z,72.07
2019-01-09T17:38:13.479Z,72.12
2019-01-09T17:40:42.967Z,71.21
2019-01-09T17:43:12.445Z,71.76
2019-01-09T17:45:41.999Z,72.13
2019-01-09T17:48:11.491Z,71.61
2019-01-09T17:50:41.293Z,71.42
2019-01-09T17:53:10.873Z,70.36
2019-01-09T17:55:40.402Z,70.44
2019-01-09T17:58:09.894Z,70.59
2019-01-09T18:00:41.324Z,70.32
2019-01-09T18:03:10.855Z,70.78
2019-01-09T18:05:40.339Z,71.18
2019-01-09T18:08:10.713Z,70.87
2019-01-09T18:10:49.716Z,70.29
2019-01-09T18:13:11.986Z,70.44
2019-01-09T18:15:41.575Z,69.60
2019-01-09T18:18:11.151Z,69.64
2019-01-09T18:20:40.754Z,70.07
2019-01-09T18:23:10.257Z,70.06
2019-01-09T18:25:39.777Z,69.55
2019-01-09T18:28:09.304Z,69.87
2019-01-09T18:30:46.739Z,69.51
2019-01-09T18:33:26.482Z,69.25
2019-01-09T18:36:21.187Z,69.73
2019-01-09T18:39:16.481Z,69.43
2019-01-09T18:42:11.701Z,69.54
2019-01-09T18:44:51.736Z,69.89
2019-01-09T18:47:46.535Z,69.79
2019-01-09T18:50:58.110Z,69.46
2019-01-09T18:53:28.754Z,69.04
2019-01-09T18:55:58.248Z,68.10
2019-01-09T18:58:27.890Z,67.91
2019-01-09T19:00:57.421Z,67.72
2019-01-09T19:03:26.923Z,67.88
2019-01-09T19:05:57.417Z,67.86
2019-01-09T19:08:26.951Z,67.46
2019-01-09T19:10:56.608Z,67.61
2019-01-09T19:13:26.241Z,67.25
2019-01-09T19:15:55.745Z,67.55
2019-01-09T19:18:25.310Z,67.95
2019-01-09T19:20:54.882Z,67.85
2019-01-09T19:23:24.423Z,67.06
2019-01-09T19:25:53.977Z,67.42
2019-01-09T19:28:23.566Z,66.66
2019-01-09T19:30:53.229Z,66.89
2019-01-09T19:33:22.824Z,66.83
2019-01-09T19:35:52.857Z,66.68
2019-01-09T19:38:22.404Z,67.08
2019-01-09T19:40:51.962Z,66.47
2019-01-09T19:43:21.731Z,66.36
2019-01-09T19:45:51.254Z,65.53
2019-01-09T19:48:20.779Z,66.46
2019-01-09T19:50:50.404Z,66.27
2019-01-09T19:53:20.381Z,65.87
2019-01-09T19:55:50.002Z,65.97
2019-01-09T19:58:19.541Z,66.68
2019-01-09T20:00:49.153Z,65.62
2019-01-09T20:03:18.678Z,65.90
2019-01-09T20:05:48.603Z,65.66
2019-01-09T20:08:18.499Z,65.21
2019-01-09T20:10:48.036Z,65.73
2019-01-09T20:13:18.213Z,65.34
2019-01-09T20:15:47.785Z,65.53
2019-01-09T20:18:17.352Z,65.00
2019-01-09T20:20:46.901Z,64.65
2019-01-09T20:23:16.402Z,64.66
2019-01-09T20:25:53.398Z,65.40
2019-01-09T20:28:23.121Z,65.02
2019-01-09T20:30:52.690Z,65.18
2019-01-09T20:33:22.264Z,64.72
2019-01-09T20:35:51.813Z,65.16
2019-01-09T20:38:21.383Z,65.71
2019-01-09T20:40:51.032Z,65.40
2019-01-09T20:43:20.696Z,64.97
2019-01-09T20:45:50.322Z,65.13
2019-01-09T20:48:19.863Z,64.85
2019-01-09T20:50:49.931Z,65.13
2019-01-09T20:53:19.527Z,65.54
2019-01-09T20:55:49.075Z,65.21
2019-01-09T20:58:18.751Z,64.85
2019-01-09T21:00:48.248Z,65.15
2019-01-09T21:03:17.870Z,65.53
2019-01-09T21:05:47.961Z,65.12
2019-01-09T21:08:17.702Z,65.31
2019-01-09T21:10:47.484Z,64.88
2019-01-09T21:13:17.114Z,64.82
2019-01-09T21:15:46.725Z,64.67
2019-01-09T21:18:16.221Z,64.57
2019-01-09T21:20:45.835Z,64.73
2019-01-09T21:23:15.446Z,63.98
2019-01-09T21:25:44.936Z,64.87
2019-01-09T21:28:15.054Z,64.66
2019-01-09T21:30:44.568Z,64.47
2019-01-09T21:33:14.138Z,64.45
2019-01-09T21:35:43.961Z,65.15
2019-01-09T21:38:13.466Z,64.94
2019-01-09T21:40:43.066Z,64.83
2019-01-09T21:43:12.610Z,65.18
2019-01-09T21:45:42.183Z,65.54
2019-01-09T21:48:11.683Z,66.47
2019-01-09T21:50:41.287Z,65.70
2019-01-09T21:53:10.884Z,66.39
2019-01-09T21:55:40.398Z,66.29
2019-01-09T21:58:10.013Z,66.82
2019-01-09T22:00:39.685Z,66.12
2019-01-09T22:03:09.123Z,65.82
2019-01-09T22:05:38.638Z,66.33
2019-01-09T22:08:08.166Z,66.36
2019-01-09T22:10:38.115Z,65.75
2019-01-09T22:13:08.939Z,65.73
2019-01-09T22:15:38.811Z,65.80
2019-01-09T22:18:08.354Z,65.34
2019-01-09T22:20:37.961Z,65.40
2019-01-09T22:23:07.524Z,65.86
2019-01-09T22:25:37.140Z,65.98
2019-01-09T22:28:26.061Z,66.58
2019-01-09T22:30:55.622Z,66.44
2019-01-09T22:33:25.097Z,66.48
2019-01-09T22:35:54.671Z,65.92
2019-01-09T22:38:24.158Z,66.18
2019-01-09T22:40:53.612Z,66.03
2019-01-09T22:43:23.099Z,66.04
2019-01-09T22:45:52.569Z,65.80
2019-01-09T22:48:22.056Z,66.21
2019-01-09T22:50:51.655Z,66.01
2019-01-09T22:53:21.156Z,65.78
2019-01-09T22:55:50.682Z,65.12
2019-01-09T22:58:20.299Z,64.98
2019-01-09T23:00:54.478Z,64.96
2019-01-09T23:03:24.082Z,65.29
2019-01-09T23:05:53.595Z,65.54
2019-01-09T23:08:23.204Z,65.21
2019-01-09T23:10:55.056Z,65.80
2019-01-09T23:13:24.529Z,65.39
2019-01-09T23:15:54.032Z,65.47
2019-01-09T23:18:23.537Z,66.21
2019-01-09T23:20:53.522Z,66.28
2019-01-09T23:23:23.024Z,66.23
2019-01-09T23:25:54.618Z,65.75
2019-01-09T23:28:23.736Z,65.55
2019-01-09T23:30:53.228Z,65.15
2019-01-09T23:33:22.767Z,65.50
2019-01-09T23:35:52.426Z,65.90
2019-01-09T23:38:22.027Z,66.02
2019-01-09T23:40:51.559Z,65.75
2019-01-09T23:43:21.137Z,65.37
2019-01-09T23:45:50.672Z,65.16
2019-01-09T23:48:20.238Z,64.85
2019-01-09T23:50:49.723Z,64.55
2019-01-09T23:53:19.503Z,64.32
2019-01-09T23:55:49.161Z,64.66
2019-01-09T23:58:18.727Z,64.79
